sensor_id;sensor_type;location;lat;lon;timestamp;temperature;humidity
45108;DHT22;30869;51.188;6.556;2022-08-21T00:18:08;22.20;99.90
45108;DHT22;30869;51.188;6.556;2022-08-21T00:21:22;21.80;99.90
45108;DHT22;30869;51.188;6.556;2022-08-21T00:28:24;21.90;99.90
45108;DHT22;30869;51.188;6.556;2022-08-21T00:31:44;22.00;99.90
45108;DHT22;30869;51.188;6.556;2022-08-21T04:33:52;20.60;99.90
45108;DHT22;30869;51.188;6.556;2022-08-21T04:36:21;20.50;99.90
45108;DHT22;30869;51.188;6.556;2022-08-21T04:38:56;20.70;99.90
45108;DHT22;30869;51.188;6.556;2022-08-21T04:41:25;20.70;99.90
45108;DHT22;30869;51.188;6.556;2022-08-21T04:43:54;20.80;99.90
45108;DHT22;30869;51.188;6.556;2022-08-21T04:46:21;20.80;99.90
45108;DHT22;30869;51.188;6.556;2022-08-21T04:48:50;21.00;99.90
45108;DHT22;30869;51.188;6.556;2022-08-21T07:56:00;23.00;95.60
45108;DHT22;30869;51.188;6.556;2022-08-21T08:02:36;23.00;94.80
45108;DHT22;30869;51.188;6.556;2022-08-21T08:05:43;23.00;94.30
45108;DHT22;30869;51.188;6.556;2022-08-21T08:08:12;23.10;95.50
45108;DHT22;30869;51.188;6.556;2022-08-21T08:10:55;23.10;95.10
45108;DHT22;30869;51.188;6.556;2022-08-21T08:13:30;23.00;95.10
45108;DHT22;30869;51.188;6.556;2022-08-21T08:16:43;23.00;95.60
45108;DHT22;30869;51.188;6.556;2022-08-21T08:22:38;23.10;94.40
45108;DHT22;30869;51.188;6.556;2022-08-21T08:25:25;23.10;93.70
45108;DHT22;30869;51.188;6.556;2022-08-21T08:27:59;23.10;93.60
45108;DHT22;30869;51.188;6.556;2022-08-21T08:30:30;23.20;93.20
45108;DHT22;30869;51.188;6.556;2022-08-21T08:33:00;23.10;93.80
45108;DHT22;30869;51.188;6.556;2022-08-21T08:35:34;23.30;93.50
45108;DHT22;30869;51.188;6.556;2022-08-21T08:38:11;23.30;93.90
45108;DHT22;30869;51.188;6.556;2022-08-21T08:43:38;23.30;93.70
45108;DHT22;30869;51.188;6.556;2022-08-21T08:46:16;23.10;94.60
45108;DHT22;30869;51.188;6.556;2022-08-21T08:49:08;23.10;94.90
45108;DHT22;30869;51.188;6.556;2022-08-21T08:54:15;22.70;94.30
45108;DHT22;30869;51.188;6.556;2022-08-21T08:56:45;22.70;94.50
45108;DHT22;30869;51.188;6.556;2022-08-21T08:59:22;22.70;95.30
45108;DHT22;30869;51.188;6.556;2022-08-21T09:01:52;22.60;94.80
45108;DHT22;30869;51.188;6.556;2022-08-21T09:04:25;22.70;94.60
45108;DHT22;30869;51.188;6.556;2022-08-21T10:22:10;22.40;93.70
45108;DHT22;30869;51.188;6.556;2022-08-21T10:28:06;22.50;93.60
45108;DHT22;30869;51.188;6.556;2022-08-21T10:30:51;22.60;93.10
45108;DHT22;30869;51.188;6.556;2022-08-21T10:33:38;22.60;93.20
45108;DHT22;30869;51.188;6.556;2022-08-21T10:39:14;22.60;93.60
45108;DHT22;30869;51.188;6.556;2022-08-21T10:42:10;22.60;93.20
45108;DHT22;30869;51.188;6.556;2022-08-21T10:47:38;22.60;92.90
45108;DHT22;30869;51.188;6.556;2022-08-21T10:55:44;22.60;93.30
45108;DHT22;30869;51.188;6.556;2022-08-21T10:58:40;22.70;93.10
45108;DHT22;30869;51.188;6.556;2022-08-21T11:01:18;22.60;93.00
45108;DHT22;30869;51.188;6.556;2022-08-21T11:03:53;22.60;93.40
45108;DHT22;30869;51.188;6.556;2022-08-21T11:06:29;22.70;93.60
45108;DHT22;30869;51.188;6.556;2022-08-21T11:09:12;22.70;92.90
45108;DHT22;30869;51.188;6.556;2022-08-21T11:11:44;22.70;93.50
45108;DHT22;30869;51.188;6.556;2022-08-21T11:16:47;22.70;93.70
45108;DHT22;30869;51.188;6.556;2022-08-21T11:19:32;22.70;93.60
45108;DHT22;30869;51.188;6.556;2022-08-21T11:22:14;22.70;93.30
45108;DHT22;30869;51.188;6.556;2022-08-21T11:27:26;22.70;93.50
45108;DHT22;30869;51.188;6.556;2022-08-21T11:29:56;22.60;93.20
45108;DHT22;30869;51.188;6.556;2022-08-21T11:45:56;22.90;93.20
45108;DHT22;30869;51.188;6.556;2022-08-21T11:48:48;22.90;93.30
45108;DHT22;30869;51.188;6.556;2022-08-21T11:51:22;22.80;92.70
45108;DHT22;30869;51.188;6.556;2022-08-21T11:54:05;22.80;93.60
45108;DHT22;30869;51.188;6.556;2022-08-21T11:56:44;23.00;92.90
45108;DHT22;30869;51.188;6.556;2022-08-21T11:59:20;23.00;91.80
45108;DHT22;30869;51.188;6.556;2022-08-21T12:01:48;23.10;92.40
45108;DHT22;30869;51.188;6.556;2022-08-21T12:04:26;23.00;93.10
45108;DHT22;30869;51.188;6.556;2022-08-21T12:06:53;23.00;93.70
45108;DHT22;30869;51.188;6.556;2022-08-21T12:17:07;23.20;92.20
45108;DHT22;30869;51.188;6.556;2022-08-21T12:19:33;23.20;93.20
45108;DHT22;30869;51.188;6.556;2022-08-21T12:24:42;23.20;92.50
45108;DHT22;30869;51.188;6.556;2022-08-21T12:27:21;23.20;91.60
45108;DHT22;30869;51.188;6.556;2022-08-21T12:30:00;23.20;92.20
45108;DHT22;30869;51.188;6.556;2022-08-21T12:32:29;23.30;92.30
45108;DHT22;30869;51.188;6.556;2022-08-21T12:37:44;23.30;91.70
45108;DHT22;30869;51.188;6.556;2022-08-21T12:40:33;23.30;92.90
45108;DHT22;30869;51.188;6.556;2022-08-21T12:43:04;23.40;92.70
45108;DHT22;30869;51.188;6.556;2022-08-21T12:45:31;23.40;92.90
45108;DHT22;30869;51.188;6.556;2022-08-21T12:48:01;23.40;93.00
45108;DHT22;30869;51.188;6.556;2022-08-21T12:53:28;23.50;91.20
45108;DHT22;30869;51.188;6.556;2022-08-21T12:55:56;23.60;91.60
45108;DHT22;30869;51.188;6.556;2022-08-21T12:58:27;23.70;91.00
45108;DHT22;30869;51.188;6.556;2022-08-21T13:01:02;23.60;91.00
45108;DHT22;30869;51.188;6.556;2022-08-21T13:03:29;23.80;92.30
45108;DHT22;30869;51.188;6.556;2022-08-21T13:05:58;23.60;90.90
45108;DHT22;30869;51.188;6.556;2022-08-21T13:08:26;23.60;90.80
45108;DHT22;30869;51.188;6.556;2022-08-21T13:11:01;23.70;92.50
45108;DHT22;30869;51.188;6.556;2022-08-21T13:13:36;23.60;90.80
45108;DHT22;30869;51.188;6.556;2022-08-21T13:16:07;23.60;92.80
45108;DHT22;30869;51.188;6.556;2022-08-21T13:21:35;23.80;92.10
45108;DHT22;30869;51.188;6.556;2022-08-21T13:24:23;23.90;91.70
45108;DHT22;30869;51.188;6.556;2022-08-21T13:26:49;23.90;90.90
45108;DHT22;30869;51.188;6.556;2022-08-21T13:29:30;24.30;91.20
45108;DHT22;30869;51.188;6.556;2022-08-21T13:31:59;24.20;90.10
45108;DHT22;30869;51.188;6.556;2022-08-21T13:34:37;24.30;88.00
45108;DHT22;30869;51.188;6.556;2022-08-21T13:37:08;24.40;91.10
45108;DHT22;30869;51.188;6.556;2022-08-21T14:17:03;24.20;90.20
45108;DHT22;30869;51.188;6.556;2022-08-21T16:02:26;24.30;84.10
45108;DHT22;30869;51.188;6.556;2022-08-21T17:04:31;24.00;82.50
45108;DHT22;30869;51.188;6.556;2022-08-21T17:06:56;24.00;85.30
45108;DHT22;30869;51.188;6.556;2022-08-21T17:15:44;24.00;88.30
45108;DHT22;30869;51.188;6.556;2022-08-21T17:21:15;23.90;86.10
45108;DHT22;30869;51.188;6.556;2022-08-21T17:23:54;23.90;88.70
45108;DHT22;30869;51.188;6.556;2022-08-21T17:26:46;23.90;89.30
45108;DHT22;30869;51.188;6.556;2022-08-21T17:29:24;23.90;90.60
45108;DHT22;30869;51.188;6.556;2022-08-21T17:31:51;24.00;90.60
45108;DHT22;30869;51.188;6.556;2022-08-21T17:34:54;24.00;91.00
45108;DHT22;30869;51.188;6.556;2022-08-21T18:28:55;23.40;93.30
